world map with GOA marked

GOA - Airport

This information may not be accurate or current and is not valid for navigation or flight planning. No warranty of fitness for any purpose is made or implied.

flag of Liguriaflag of Italy

Donate via PayPal

Additional information is available on the NEW Great Circle Mapper

Location
City:  Genoa, Liguria, Italy
Near (Alt.):Genova
Name:Genoa Cristoforo Colombo (Sestri)
ICAO / IATA:LIMJ / GOA

Details
Type:Airport (Aerodrome, Airfield)
Use:Public/Civil
Latitude:44°24'48"N (44.413333)
Longitude:8°50'15"E (8.837500)
Datum:WGS 1984
Elevation:13 ft (4 m)
Runways:1
Longest:9564 × 148 ft (2915 × 45 m)

Time
Timezone:UTC+1 (DST+4)
Local Time:

Weather
METAR:LIMJ  041350Z 35006KT 290V070 CAVOK 14/M00 Q1023
TAF:LIMJ  041100Z 0412/0512 01015KT CAVOK

Related Locations
Nearby:
Farthest:CHT: 12174 mi / 19592 km
Waitangi [Tuuta], CIT, NZ

Find:

   beyond  
but within

Other Information
Maps:
Sources:

  


 


Great Circle Mapper   Great Circle Mapper
Great Circle Mapper FAQ   Great Circle Mapper FAQ
  Karl's Home Page
KLSē   KLSē Home
   GC on Facebook
Airlines of the World   Airlines of the World
Donate via PayPal


Copyright © 2004-2019, Karl L. Swartz. All rights reserved.
All trademarks mentioned herein belong to their respective owners.

Please see credits for attribution and copyright information.

Karl Swartz <karl@kls2.com>
  Powered by FreeBSD
Valid HTML 4.01!
Labeled with ICRA
hCard Microformat
Geo Microformat